Sochi, Russia
Current Conditions -  °F | °C
As of 9:00 PM on Thursday 29 Jan 2015 (Local Time) from URSS Reporting Station
Broken Clouds Broken Clouds  
Wind Chill: 40°   Ceiling: 10000
Heat Index: 45°   Visibility: 6mi
Dew Point: 41°   Wind: 9mph
Humidity: 87%   Direction: 70°ENE
Pressure: 29.94"   Gusts: NA
Location:  43.6°N, 39.73°E
Report Text: URSS 291800Z 07004MPS 9999 SCT050CB BKN100 07/05 Q1014 WS RWY06NOSIG RMK R02/05003MPS QFE759 06290055 02//////
Loading
Personal Weather Stations






























Interactive Weather Map New forecast layout! Learn more

10-Day Weather Forecast

Advertisements
Track Severe Weather on mobile